Time;durP1;ratioP1;P1;durP2;ratioP2;P2;SDS_P1;SDS_P2;PMS_P1;PMS_P2;Temp;Humidity;BMP_temperature;BMP_pressure;BME280_temperature;BME280_humidity;BME280_pressure;Samples;Min_cycle;Max_cycle;Signal;HPM_P1;HPM_P2
2023/03/07 00:00:32;;;;;;;0.38;0.38;;;;;;;3.62;85.48;99449.56;5165482;28;20034;-80
2023/03/07 00:03:03;;;;;;;0.77;0.77;;;;;;;3.62;85.11;99439.16;5147374;28;20034;-80
2023/03/07 00:05:33;;;;;;;2.05;1.95;;;;;;;3.56;86.14;99438.41;5165284;28;20035;-81
2023/03/07 00:08:04;;;;;;;0.30;0.30;;;;;;;3.55;86.20;99436.72;5127430;28;20062;-81
2023/03/07 00:10:35;;;;;;;0.75;0.75;;;;;;;3.59;85.80;99440.97;5134120;28;20027;-81
2023/03/07 00:13:05;;;;;;;1.25;0.93;;;;;;;3.56;86.06;99428.88;5169700;28;20070;-81
2023/03/07 00:15:37;;;;;;;1.77;1.67;;;;;;;3.54;86.00;99432.41;5168751;28;20027;-81
2023/03/07 00:18:08;;;;;;;0.75;0.75;;;;;;;3.58;86.00;99426.28;5168977;28;20030;-81
2023/03/07 00:20:38;;;;;;;1.15;1.15;;;;;;;3.56;86.27;99423.69;5145976;28;20497;-80
2023/03/07 00:23:09;;;;;;;0.68;0.68;;;;;;;3.49;86.33;99432.50;5151563;28;20034;-80
2023/03/07 00:25:39;;;;;;;1.10;0.80;;;;;;;3.59;86.11;99417.63;5147700;28;20022;-81
2023/03/07 00:28:09;;;;;;;0.70;0.70;;;;;;;3.56;86.51;99428.06;5151088;28;20109;-80
2023/03/07 00:30:40;;;;;;;0.85;0.85;;;;;;;3.55;86.28;99421.16;5152098;28;20110;-81
2023/03/07 00:33:10;;;;;;;1.15;1.05;;;;;;;3.55;86.57;99415.97;5147868;28;20035;-80
2023/03/07 00:35:41;;;;;;;1.70;1.60;;;;;;;3.61;87.10;99415.84;5145494;28;20026;-80
2023/03/07 00:38:11;;;;;;;0.43;0.43;;;;;;;3.53;87.52;99412.53;5134240;28;20081;-79
2023/03/07 00:40:42;;;;;;;0.40;0.40;;;;;;;3.56;87.64;99407.31;5150290;28;20507;-80
2023/03/07 00:43:12;;;;;;;0.82;0.82;;;;;;;3.55;87.68;99411.66;5136136;28;20050;-80
2023/03/07 00:45:43;;;;;;;0.65;0.65;;;;;;;3.57;87.57;99411.59;5164331;28;20049;-81
2023/03/07 00:48:13;;;;;;;0.65;0.65;;;;;;;3.52;88.51;99403.03;5171620;28;20030;-81
2023/03/07 00:50:44;;;;;;;0.60;0.60;;;;;;;3.57;87.97;99404.66;5150276;28;20054;-81
2023/03/07 00:53:15;;;;;;;0.30;0.30;;;;;;;3.57;88.50;99409.84;5151771;28;20026;-80
2023/03/07 00:55:57;;;;;;;0.40;0.40;;;;;;;3.59;88.72;99402.91;5169037;28;20026;-80
2023/03/07 00:58:30;;;;;;;0.45;0.45;;;;;;;3.59;88.92;99404.66;5149170;28;20030;-81
2023/03/07 01:01:02;;;;;;;0.67;0.67;;;;;;;3.56;89.21;99396.94;5136806;28;20031;-81
2023/03/07 01:03:33;;;;;;;0.50;0.50;;;;;;;3.58;90.02;99400.34;5131100;28;20043;-80
2023/03/07 01:06:11;;;;;;;0.40;0.40;;;;;;;3.63;89.78;99403.69;5134632;28;20046;-80
2023/03/07 01:08:43;;;;;;;0.77;0.77;;;;;;;3.67;89.19;99395.00;5148643;28;20027;-81
2023/03/07 01:11:13;;;;;;;1.60;1.50;;;;;;;3.71;89.52;99406.16;5157525;28;20837;-81
2023/03/07 01:13:44;;;;;;;0.57;0.57;;;;;;;3.66;89.74;99398.47;5135401;28;20039;-81
2023/03/07 01:16:14;;;;;;;0.35;0.35;;;;;;;3.65;89.78;99390.69;5131724;28;20030;-80
2023/03/07 01:18:50;;;;;;;0.50;0.50;;;;;;;3.67;89.75;99400.19;5151023;28;20118;-80
2023/03/07 01:21:21;;;;;;;0.40;0.40;;;;;;;3.67;90.18;99384.59;5149841;28;20490;-80
2023/03/07 01:23:53;;;;;;;0.30;0.30;;;;;;;3.69;89.95;99385.41;5132766;28;20050;-81
2023/03/07 01:26:29;;;;;;;0.73;0.73;;;;;;;3.68;89.97;99386.28;5133511;28;20039;-81
2023/03/07 01:29:02;;;;;;;0.50;0.50;;;;;;;3.72;90.36;99389.72;5138346;28;20030;-81
2023/03/07 01:31:33;;;;;;;0.50;0.50;;;;;;;3.71;91.04;99383.66;5164724;28;20046;-81
2023/03/07 01:34:04;;;;;;;0.40;0.40;;;;;;;3.71;90.78;99375.88;5130972;28;20034;-81
2023/03/07 01:36:35;;;;;;;0.52;0.52;;;;;;;3.74;90.49;99368.03;5141092;28;20030;-81
2023/03/07 01:39:15;;;;;;;1.45;1.35;;;;;;;3.68;90.73;99373.31;5146495;28;20030;-81
2023/03/07 01:41:46;;;;;;;0.55;0.55;;;;;;;3.74;90.26;99374.94;5143775;28;20543;-81
2023/03/07 01:44:24;;;;;;;0.30;0.30;;;;;;;3.73;90.59;99371.50;5133433;28;20034;-81
2023/03/07 01:46:57;;;;;;;0.68;0.68;;;;;;;3.75;90.56;99374.94;5134090;28;20053;-81
2023/03/07 01:49:31;;;;;;;0.40;0.40;;;;;;;3.75;90.32;99361.97;5154519;28;20037;-81
2023/03/07 01:52:15;;;;;;;0.63;0.63;;;;;;;3.81;90.60;99366.13;5148335;28;20045;-81
2023/03/07 01:54:53;;;;;;;0.60;0.60;;;;;;;3.75;90.49;99367.16;5131737;28;20022;-81
2023/03/07 01:57:30;;;;;;;0.40;0.40;;;;;;;3.77;91.20;99354.97;5155181;28;20433;-81
2023/03/07 02:00:10;;;;;;;0.77;0.77;;;;;;;3.81;90.26;99354.91;5164068;28;20061;-80
2023/03/07 02:02:44;;;;;;;0.30;0.30;;;;;;;3.74;90.43;99344.69;5180076;28;20156;-80
2023/03/07 02:05:22;;;;;;;1.02;1.02;;;;;;;3.73;90.87;99337.78;5171057;28;20081;-81
2023/03/07 02:07:55;;;;;;;0.30;0.30;;;;;;;3.74;90.56;99339.50;5150938;28;20046;-81
2023/03/07 02:10:27;;;;;;;0.30;0.30;;;;;;;3.64;91.50;99337.97;5178185;28;20038;-81
2023/03/07 02:12:57;;;;;;;1.40;1.30;;;;;;;3.70;90.76;99335.25;5140608;28;20398;-82
2023/03/07 02:15:28;;;;;;;0.77;0.77;;;;;;;3.71;91.14;99336.09;5140246;28;20030;-82
2023/03/07 02:17:58;;;;;;;0.30;0.30;;;;;;;3.71;90.98;99329.16;5147093;28;20066;-82
2023/03/07 02:20:41;;;;;;;0.43;0.43;;;;;;;3.76;90.45;99326.47;5148200;28;20163;-82
2023/03/07 02:23:22;;;;;;;0.50;0.50;;;;;;;3.70;91.60;99324.03;5152107;28;20034;-82
2023/03/07 02:26:37;;;;;;;0.60;0.60;;;;;;;3.70;91.33;99324.03;5162798;28;20445;-82
2023/03/07 02:29:09;;;;;;;0.40;0.40;;;;;;;3.78;91.26;99309.97;5129628;28;20042;-82
2023/03/07 02:31:40;;;;;;;0.82;0.82;;;;;;;3.74;91.59;99313.53;5131278;28;20042;-82
2023/03/07 02:34:22;;;;;;;0.30;0.30;;;;;;;3.80;90.90;99311.69;5169608;28;20110;-81
2023/03/07 02:36:57;;;;;;;0.50;0.50;;;;;;;3.77;92.13;99305.69;5145871;28;20066;-82
2023/03/07 02:39:31;;;;;;;0.73;0.73;;;;;;;3.87;91.34;99308.06;5141869;28;20027;-81
2023/03/07 02:42:11;;;;;;;0.40;0.40;;;;;;;3.79;91.26;99310.84;5150531;28;20141;-81
2023/03/07 02:44:46;;;;;;;0.50;0.50;;;;;;;3.72;92.40;99302.34;5145870;28;20030;-81
2023/03/07 02:47:16;;;;;;;1.85;1.75;;;;;;;3.74;91.53;99300.56;5141236;28;20678;-81
2023/03/07 02:49:47;;;;;;;0.40;0.40;;;;;;;3.83;90.73;99296.91;5129823;28;20057;-81
2023/03/07 02:52:18;;;;;;;2.55;0.85;;;;;;;3.80;91.22;99286.63;5133967;28;20039;-81
2023/03/07 02:54:48;;;;;;;0.32;0.32;;;;;;;3.86;90.48;99285.59;5147243;28;20081;-80
2023/03/07 02:57:18;;;;;;;0.50;0.50;;;;;;;3.81;91.04;99292.66;5151270;28;20043;-81
2023/03/07 02:59:49;;;;;;;0.45;0.45;;;;;;;3.74;90.80;99285.00;5134419;28;20817;-80
2023/03/07 03:02:19;;;;;;;0.80;0.80;;;;;;;3.78;90.17;99289.22;5160370;28;20054;-81
2023/03/07 03:04:50;;;;;;;0.40;0.40;;;;;;;3.75;90.20;99289.31;5135506;28;20053;-81
2023/03/07 03:07:20;;;;;;;0.75;0.75;;;;;;;3.83;89.88;99277.91;5150328;28;20097;-80
2023/03/07 03:09:51;;;;;;;0.40;0.40;;;;;;;3.80;89.86;99280.56;5132435;28;20665;-79
2023/03/07 03:12:21;;;;;;;1.65;1.55;;;;;;;3.73;90.34;99283.31;5157180;28;20402;-80
2023/03/07 03:14:51;;;;;;;0.63;0.63;;;;;;;3.75;89.79;99272.88;5154900;28;20035;-80
2023/03/07 03:17:22;;;;;;;1.10;1.10;;;;;;;3.78;89.57;99283.19;5156137;28;20053;-80
2023/03/07 03:19:53;;;;;;;0.95;0.95;;;;;;;3.81;89.34;99267.53;5136326;28;20034;-79
2023/03/07 03:22:23;;;;;;;0.80;0.80;;;;;;;3.75;89.40;99271.16;5150484;28;20155;-80
2023/03/07 03:24:54;;;;;;;0.75;0.75;;;;;;;3.74;89.52;99277.22;5131513;28;20508;-81
2023/03/07 03:27:24;;;;;;;0.50;0.50;;;;;;;3.78;89.81;99268.47;5161845;28;20023;-80
2023/03/07 03:29:55;;;;;;;1.95;1.15;;;;;;;3.84;89.19;99277.03;5146746;28;20078;-80
2023/03/07 03:32:25;;;;;;;0.50;0.50;;;;;;;3.68;89.48;99277.34;5131917;28;20461;-80
2023/03/07 03:34:56;;;;;;;0.68;0.68;;;;;;;3.71;89.40;99266.06;5146248;28;20018;-80
2023/03/07 03:37:26;;;;;;;0.40;0.40;;;;;;;3.70;90.32;99270.38;5132655;28;20067;-80
2023/03/07 03:39:56;;;;;;;0.50;0.50;;;;;;;3.74;89.35;99277.22;5149504;28;20046;-81
2023/03/07 03:42:27;;;;;;;0.40;0.40;;;;;;;3.71;89.23;99256.53;5148042;28;20031;-81
2023/03/07 03:44:57;;;;;;;0.30;0.30;;;;;;;3.68;89.71;99256.59;5143164;28;20022;-80
2023/03/07 03:47:28;;;;;;;3.20;1.13;;;;;;;3.69;89.64;99258.28;5162489;28;20054;-80
2023/03/07 03:49:58;;;;;;;0.50;0.50;;;;;;;3.68;89.62;99260.94;5150220;28;20088;-80
2023/03/07 03:52:29;;;;;;;0.40;0.40;;;;;;;3.70;89.54;99265.19;5151143;28;20031;-80
2023/03/07 03:54:59;;;;;;;0.60;0.60;;;;;;;3.63;90.22;99263.63;5148193;28;20096;-80
2023/03/07 03:57:29;;;;;;;0.38;0.38;;;;;;;3.65;89.36;99267.06;5143173;28;20035;-81
2023/03/07 04:00:00;;;;;;;0.30;0.30;;;;;;;3.65;89.71;99256.69;5136167;28;20509;-80
2023/03/07 04:02:32;;;;;;;0.50;0.50;;;;;;;3.62;89.58;99261.91;5128850;28;20034;-80
2023/03/07 04:05:04;;;;;;;0.68;0.68;;;;;;;3.65;90.30;99241.09;5145257;28;20035;-80
2023/03/07 04:07:34;;;;;;;0.40;0.40;;;;;;;3.60;89.75;99243.81;5145726;28;20031;-80
2023/03/07 04:10:05;;;;;;;0.50;0.50;;;;;;;3.55;90.02;99245.66;5145981;28;20036;-81
2023/03/07 04:12:35;;;;;;;2.63;2.00;;;;;;;3.54;90.81;99238.75;5165863;28;20031;-81
2023/03/07 04:15:07;;;;;;;0.38;0.38;;;;;;;3.58;90.31;99234.34;5145393;28;20046;-80
2023/03/07 04:17:37;;;;;;;0.40;0.40;;;;;;;3.57;90.31;99235.25;5158969;28;20031;-80
2023/03/07 04:20:13;;;;;;;0.30;0.30;;;;;;;3.55;89.93;99231.81;5152132;28;20046;-80
2023/03/07 04:22:44;;;;;;;0.57;0.57;;;;;;;3.63;89.87;99219.53;5148189;28;20042;-81
2023/03/07 04:25:14;;;;;;;0.55;0.55;;;;;;;3.57;89.90;99223.13;5135094;28;20031;-79
2023/03/07 04:27:45;;;;;;;0.70;0.70;;;;;;;3.60;89.70;99222.19;5134964;28;20044;-80
2023/03/07 04:30:15;;;;;;;0.55;0.55;;;;;;;3.57;89.65;99210.16;5137374;28;20026;-80
2023/03/07 04:32:46;;;;;;;0.50;0.50;;;;;;;3.60;89.90;99209.22;5130050;28;20093;-81
2023/03/07 04:35:16;;;;;;;3.78;3.17;;;;;;;3.58;90.07;99205.81;5164219;28;20550;-80
2023/03/07 04:37:49;;;;;;;0.65;0.65;;;;;;;3.60;89.56;99206.63;5152599;28;20129;-80
2023/03/07 04:40:19;;;;;;;0.57;0.57;;;;;;;3.58;90.07;99208.41;5152621;28;20611;-81
2023/03/07 04:42:50;;;;;;;0.40;0.40;;;;;;;3.66;90.19;99201.31;5140474;28;20039;-81
2023/03/07 04:45:20;;;;;;;0.30;0.30;;;;;;;3.65;89.77;99194.41;5136243;28;20034;-81
2023/03/07 04:47:51;;;;;;;1.08;1.08;;;;;;;3.63;90.04;99203.97;5136955;28;20046;-81
2023/03/07 04:50:21;;;;;;;0.50;0.50;;;;;;;3.57;89.65;99196.34;5153411;28;20041;-80
2023/03/07 04:52:51;;;;;;;0.38;0.38;;;;;;;3.58;89.72;99204.06;5134933;28;20039;-80
2023/03/07 04:55:22;;;;;;;0.32;0.32;;;;;;;3.57;89.97;99202.38;5142911;28;20148;-80
2023/03/07 04:57:52;;;;;;;1.38;1.02;;;;;;;3.56;89.70;99184.25;5135112;28;20054;-80
2023/03/07 05:00:23;;;;;;;0.38;0.38;;;;;;;3.60;89.24;99189.34;5145106;28;20117;-80
2023/03/07 05:03:00;;;;;;;7.38;2.15;;;;;;;3.64;89.65;99190.13;5127599;28;20105;-81
2023/03/07 05:05:31;;;;;;;0.40;0.40;;;;;;;3.54;89.74;99192.09;5144090;28;20051;-80
2023/03/07 05:08:03;;;;;;;1.13;1.13;;;;;;;3.54;90.19;99186.03;5145410;28;20129;-81
2023/03/07 05:10:34;;;;;;;0.68;0.68;;;;;;;3.52;90.04;99187.78;5149274;28;20034;-80
2023/03/07 05:13:05;;;;;;;1.25;1.15;;;;;;;3.54;90.05;99188.63;5145826;28;20038;-79
2023/03/07 05:15:35;;;;;;;0.80;0.80;;;;;;;3.58;90.46;99177.28;5149137;28;20596;-79
2023/03/07 05:18:06;;;;;;;0.50;0.50;;;;;;;3.55;90.08;99173.03;5130949;28;20065;-80
2023/03/07 05:20:36;;;;;;;1.42;1.33;;;;;;;3.60;90.55;99170.31;5130163;28;20034;-81
2023/03/07 05:23:07;;;;;;;0.57;0.57;;;;;;;3.59;90.15;99173.81;5128849;28;20035;-81
2023/03/07 05:25:37;;;;;;;0.85;0.85;;;;;;;3.61;89.95;99166.84;5162479;28;20026;-78
2023/03/07 05:28:08;;;;;;;0.52;0.52;;;;;;;3.55;90.41;99164.38;5150896;28;20046;-81
2023/03/07 05:30:38;;;;;;;0.68;0.47;;;;;;;3.59;90.61;99163.44;5169319;28;20037;-81
2023/03/07 05:33:09;;;;;;;0.73;0.73;;;;;;;3.56;90.01;99166.09;5134466;28;21059;-80
2023/03/07 05:35:39;;;;;;;0.40;0.40;;;;;;;3.57;90.31;99157.44;5149321;28;20014;-79
2023/03/07 05:38:10;;;;;;;0.45;0.45;;;;;;;3.56;90.51;99161.75;5170760;28;20043;-79
2023/03/07 05:40:40;;;;;;;0.30;0.30;;;;;;;3.54;91.16;99160.97;5171618;28;20030;-78
2023/03/07 05:43:11;;;;;;;0.30;0.30;;;;;;;3.56;90.68;99166.09;5145546;28;20038;-79
2023/03/07 05:45:41;;;;;;;0.95;0.95;;;;;;;3.62;89.60;99158.16;5169266;28;20050;-80
2023/03/07 05:48:12;;;;;;;0.32;0.32;;;;;;;3.63;90.23;99159.88;5129884;28;20032;-80
2023/03/07 05:50:42;;;;;;;2.22;2.05;;;;;;;3.55;90.32;99164.38;5139342;28;20022;-79
2023/03/07 05:53:13;;;;;;;0.30;0.30;;;;;;;3.56;89.91;99155.72;5165852;28;20054;-80
2023/03/07 05:55:44;;;;;;;0.40;0.40;;;;;;;3.56;90.50;99155.72;5131687;28;20031;-80
2023/03/07 05:58:14;;;;;;;7.65;3.08;;;;;;;3.60;90.27;99150.44;5146972;28;20035;-79
2023/03/07 06:00:44;;;;;;;0.70;0.70;;;;;;;3.68;89.75;99144.19;5131848;28;20078;-80
2023/03/07 06:03:15;;;;;;;0.40;0.40;;;;;;;3.64;89.54;99146.03;5129478;28;20125;-80
2023/03/07 06:05:49;;;;;;;1.23;1.13;;;;;;;3.62;89.95;99152.97;5148705;28;20376;-80
2023/03/07 06:08:19;;;;;;;0.68;0.68;;;;;;;3.65;89.70;99152.03;5144722;28;20030;-79
2023/03/07 06:10:51;;;;;;;0.55;0.55;;;;;;;3.66;90.08;99144.25;5161482;28;20027;-80
2023/03/07 06:13:23;;;;;;;0.60;0.60;;;;;;;3.66;89.80;99144.25;5147079;28;20096;-80
2023/03/07 06:15:54;;;;;;;0.68;0.68;;;;;;;3.64;88.97;99143.44;5128874;28;21593;-80
2023/03/07 06:18:25;;;;;;;1.63;1.38;;;;;;;3.72;89.82;99143.25;5131306;28;20050;-81
2023/03/07 06:21:00;;;;;;;0.57;0.57;;;;;;;3.68;89.76;99136.41;5149239;28;20943;-80
2023/03/07 06:23:33;;;;;;;1.42;1.35;;;;;;;3.64;89.76;99133.06;5131623;28;20031;-80
2023/03/07 06:26:04;;;;;;;0.40;0.40;;;;;;;3.70;90.09;99140.69;5134028;28;20156;-80
2023/03/07 06:28:35;;;;;;;0.40;0.40;;;;;;;3.63;89.95;99144.31;5144631;28;20050;-81
2023/03/07 06:31:16;;;;;;;0.73;0.73;;;;;;;3.71;90.20;99133.75;5144641;28;20061;-79
2023/03/07 06:33:46;;;;;;;0.30;0.30;;;;;;;3.72;89.45;99145.84;5153138;28;20110;-80
2023/03/07 06:36:18;;;;;;;0.40;0.40;;;;;;;3.74;89.79;99138.84;5135992;28;20194;-80
2023/03/07 06:38:49;;;;;;;0.60;0.60;;;;;;;3.75;89.42;99138.84;5127868;28;20039;-80
2023/03/07 06:41:19;;;;;;;0.40;0.40;;;;;;;3.71;90.55;99129.41;5140671;28;20022;-80
2023/03/07 06:43:53;;;;;;;0.60;0.60;;;;;;;3.70;89.14;99132.06;5156821;28;20087;-79
2023/03/07 06:46:23;;;;;;;1.65;1.55;;;;;;;3.73;89.37;99125.03;5172466;28;20069;-80
2023/03/07 06:48:54;;;;;;;1.30;1.30;;;;;;;3.74;89.53;99124.16;5171125;28;20043;-81
2023/03/07 06:51:25;;;;;;;0.40;0.40;;;;;;;3.73;89.50;99121.59;5160963;28;20047;-78
2023/03/07 06:53:55;;;;;;;2.30;0.82;;;;;;;3.74;89.70;99115.50;5142457;28;20030;-81
2023/03/07 06:56:28;;;;;;;0.60;0.60;;;;;;;3.76;89.57;99117.16;5129542;28;20018;-78
2023/03/07 06:58:59;;;;;;;1.50;1.40;;;;;;;3.76;89.37;99114.56;5143791;28;20782;-78
2023/03/07 07:01:29;;;;;;;12.85;1.75;;;;;;;3.75;89.48;99112.91;5144380;28;20077;-79
2023/03/07 07:04:00;;;;;;;0.93;0.93;;;;;;;3.78;89.33;99120.59;5124244;28;20031;-79
2023/03/07 07:06:30;;;;;;;1.48;1.38;;;;;;;3.81;89.08;99118.81;5147657;28;20036;-78
2023/03/07 07:09:01;;;;;;;0.40;0.40;;;;;;;3.81;88.96;99116.22;5156266;28;20026;-78
2023/03/07 07:11:31;;;;;;;1.23;1.20;;;;;;;3.80;88.74;99119.69;5156936;28;20033;-79
2023/03/07 07:14:02;;;;;;;0.82;0.82;;;;;;;3.86;88.46;99103.97;5139871;28;20410;-78
2023/03/07 07:16:35;;;;;;;0.52;0.52;;;;;;;3.89;88.84;99120.31;5163424;28;20054;-79
2023/03/07 07:19:05;;;;;;;0.68;0.68;;;;;;;3.86;88.06;99114.34;5160235;28;20054;-79
2023/03/07 07:21:35;;;;;;;1.25;1.15;;;;;;;3.84;88.67;99110.97;5135132;28;20508;-78
2023/03/07 07:24:06;;;;;;;1.80;1.65;;;;;;;3.92;88.24;99109.03;5147012;28;20030;-79
2023/03/07 07:26:36;;;;;;;0.63;0.63;;;;;;;3.92;88.70;99111.63;5143269;28;20085;-80
2023/03/07 07:29:07;;;;;;;1.67;1.58;;;;;;;3.94;87.59;99107.22;5148367;28;20022;-80
2023/03/07 07:31:37;;;;;;;1.17;1.17;;;;;;;3.88;88.65;99112.56;5143007;28;20022;-79
2023/03/07 07:34:08;;;;;;;0.73;0.73;;;;;;;3.91;87.78;99112.50;5126825;28;20042;-80
2023/03/07 07:36:38;;;;;;;0.95;0.95;;;;;;;3.92;88.17;99119.41;5143560;28;20071;-80
2023/03/07 07:39:10;;;;;;;0.35;0.35;;;;;;;3.88;88.21;99112.56;5159403;28;20027;-79
2023/03/07 07:41:41;;;;;;;0.80;0.77;;;;;;;3.94;87.58;99121.06;5149700;28;20036;-79
2023/03/07 07:44:11;;;;;;;0.40;0.40;;;;;;;3.92;87.83;99116.81;5143881;28;20390;-79
2023/03/07 07:46:42;;;;;;;0.40;0.40;;;;;;;3.88;87.85;99128.16;5133563;28;20042;-79
2023/03/07 07:49:12;;;;;;;0.52;0.52;;;;;;;3.91;87.79;99122.88;5157075;28;20061;-79
2023/03/07 07:51:43;;;;;;;0.70;0.70;;;;;;;3.91;88.32;99115.94;5148395;28;20125;-79
2023/03/07 07:54:13;;;;;;;0.70;0.70;;;;;;;3.91;88.12;99122.88;5143964;28;20533;-80
2023/03/07 07:56:43;;;;;;;0.30;0.30;;;;;;;3.94;88.34;99122.78;5125871;28;20039;-79
2023/03/07 07:59:14;;;;;;;0.85;0.85;;;;;;;3.94;87.73;99121.06;5150671;28;20041;-79
2023/03/07 08:01:44;;;;;;;0.52;0.52;;;;;;;3.89;87.45;99119.47;5166099;28;20101;-80
2023/03/07 08:04:15;;;;;;;1.58;0.98;;;;;;;3.92;87.35;99119.41;5137338;28;20970;-79
2023/03/07 08:06:45;;;;;;;0.40;0.40;;;;;;;3.97;87.48;99130.50;5127224;28;20042;-80
2023/03/07 08:09:16;;;;;;;0.73;0.73;;;;;;;3.97;87.90;99117.53;5136985;28;20029;-79
2023/03/07 08:11:47;;;;;;;0.90;0.90;;;;;;;4.04;87.34;99124.25;5141393;28;20325;-80
2023/03/07 08:14:17;;;;;;;0.40;0.40;;;;;;;4.00;87.39;99117.47;5144478;28;20027;-79
2023/03/07 08:16:48;;;;;;;1.85;1.75;;;;;;;3.96;87.32;99121.00;5142050;28;20402;-79
2023/03/07 08:19:18;;;;;;;0.45;0.45;;;;;;;3.99;87.64;99120.94;5131487;28;20035;-79
2023/03/07 08:21:49;;;;;;;0.40;0.40;;;;;;;3.99;86.99;99131.31;5130582;28;20188;-79
2023/03/07 08:24:19;;;;;;;0.70;0.70;;;;;;;4.00;87.35;99125.25;5146156;28;20117;-80
2023/03/07 08:26:49;;;;;;;0.82;0.82;;;;;;;4.04;86.50;99123.44;5141763;28;20038;-79
2023/03/07 08:29:20;;;;;;;1.10;1.10;;;;;;;4.02;86.98;99117.41;5144411;28;20023;-79
2023/03/07 08:31:52;;;;;;;0.38;0.38;;;;;;;4.01;86.55;99113.13;5144580;28;20355;-79
2023/03/07 08:34:22;;;;;;;0.50;0.50;;;;;;;4.10;86.69;99126.69;5147594;28;20057;-79
2023/03/07 08:36:53;;;;;;;0.50;0.50;;;;;;;4.07;86.74;99113.81;5163544;28;20076;-79
2023/03/07 08:39:23;;;;;;;0.50;0.50;;;;;;;4.10;86.02;99113.72;5142736;28;20031;-79
2023/03/07 08:41:55;;;;;;;0.82;0.82;;;;;;;4.15;85.49;99116.19;5129095;28;20518;-79
2023/03/07 08:44:26;;;;;;;1.63;1.52;;;;;;;4.13;86.17;99122.31;5161526;28;20019;-79
2023/03/07 08:46:56;;;;;;;1.05;1.05;;;;;;;4.16;86.64;99109.28;5141322;28;20053;-80
2023/03/07 08:49:27;;;;;;;0.63;0.63;;;;;;;4.15;86.52;99110.16;5148655;28;20033;-80
2023/03/07 08:51:57;;;;;;;2.08;1.98;;;;;;;4.14;87.47;99114.47;5143019;28;20046;-80
2023/03/07 08:54:28;;;;;;;0.63;0.63;;;;;;;4.14;86.49;99111.06;5127425;28;20077;-80
2023/03/07 08:56:59;;;;;;;0.38;0.38;;;;;;;4.19;87.50;99114.38;5144849;28;20046;-80
2023/03/07 08:59:29;;;;;;;0.85;0.85;;;;;;;4.12;87.32;99118.88;5149000;28;20041;-80
2023/03/07 09:02:00;;;;;;;0.77;0.77;;;;;;;4.15;87.30;99112.75;5142738;28;20449;-79
2023/03/07 09:04:30;;;;;;;0.30;0.30;;;;;;;4.13;87.68;99110.22;5128055;28;20027;-79
2023/03/07 09:07:01;;;;;;;0.47;0.47;;;;;;;4.16;88.13;99122.25;5145417;28;20325;-79
2023/03/07 09:09:31;;;;;;;0.65;0.65;;;;;;;4.17;87.35;99129.16;5131073;28;20343;-80
2023/03/07 09:12:01;;;;;;;0.60;0.60;;;;;;;4.19;87.51;99122.16;5129789;28;20751;-80
2023/03/07 09:14:32;;;;;;;2.13;1.33;;;;;;;4.26;88.15;99123.69;5163083;28;20107;-80
2023/03/07 09:17:03;;;;;;;0.65;0.65;;;;;;;4.21;87.85;99121.25;5141549;28;20042;-80
2023/03/07 09:19:34;;;;;;;0.60;0.60;;;;;;;4.23;87.58;99123.78;5165675;28;20034;-80
2023/03/07 09:22:06;;;;;;;0.80;0.80;;;;;;;4.26;88.58;99121.09;5151540;28;20054;-80
2023/03/07 09:24:37;;;;;;;0.47;0.47;;;;;;;4.30;88.24;99124.50;5149891;28;20026;-80
2023/03/07 09:27:07;;;;;;;0.73;0.73;;;;;;;4.33;88.01;99119.19;5148768;28;20030;-79
2023/03/07 09:29:38;;;;;;;0.30;0.30;;;;;;;4.34;88.58;99121.72;5149411;28;20018;-80
2023/03/07 09:32:08;;;;;;;0.40;0.40;;;;;;;4.34;88.91;99131.28;5133359;28;20112;-79
2023/03/07 09:34:39;;;;;;;0.65;0.65;;;;;;;4.35;87.76;99110.47;5136818;28;20074;-80
2023/03/07 09:37:09;;;;;;;0.50;0.50;;;;;;;4.40;88.33;99118.13;5164535;28;20063;-80
2023/03/07 09:39:40;;;;;;;0.57;0.57;;;;;;;4.37;88.19;99119.06;5136383;28;20018;-79
2023/03/07 09:42:35;;;;;;;0.50;0.50;;;;;;;4.43;89.03;99117.19;5131000;28;20065;-80
2023/03/07 09:45:13;;;;;;;0.38;0.38;;;;;;;4.49;88.37;99114.44;5142203;28;20885;-79
2023/03/07 09:47:52;;;;;;;0.40;0.40;;;;;;;4.47;88.97;99122.25;5150301;28;20054;-79
2023/03/07 09:50:39;;;;;;;1.80;1.70;;;;;;;4.44;88.21;99121.50;5153654;28;20026;-78
2023/03/07 09:53:21;;;;;;;0.50;0.50;;;;;;;4.39;89.17;99122.47;5129727;28;20030;-80
2023/03/07 09:56:04;;;;;;;0.40;0.40;;;;;;;4.40;88.65;99118.13;5146768;28;20664;-80
2023/03/07 09:58:41;;;;;;;0.57;0.57;;;;;;;4.41;88.58;99112.91;5128645;28;20740;-80
2023/03/07 10:01:19;;;;;;;0.60;0.60;;;;;;;4.40;87.93;99116.41;5151365;28;20043;-80
2023/03/07 10:03:55;;;;;;;0.50;0.50;;;;;;;4.43;88.25;99119.78;5145265;28;20097;-80
2023/03/07 10:06:36;;;;;;;0.75;0.75;;;;;;;4.41;88.33;99120.69;5127802;28;20023;-80
2023/03/07 10:09:13;;;;;;;0.77;0.77;;;;;;;4.36;88.42;99130.34;5127000;28;20245;-80
2023/03/07 10:11:49;;;;;;;0.43;0.43;;;;;;;4.36;87.83;99119.97;5126333;28;20035;-80
2023/03/07 10:14:38;;;;;;;0.40;0.40;;;;;;;4.36;88.72;99130.34;5147332;28;20047;-79
2023/03/07 10:17:49;;;;;;;0.35;0.35;;;;;;;4.31;88.75;99127.03;5124510;28;20034;-79
2023/03/07 10:20:37;;;;;;;0.65;0.65;;;;;;;4.34;88.35;99133.88;5148205;28;20118;-79
2023/03/07 10:23:16;;;;;;;1.55;1.45;;;;;;;4.36;88.61;99134.69;5154511;28;20091;-80
2023/03/07 10:25:55;;;;;;;0.70;0.70;;;;;;;4.31;88.05;99145.22;5151705;28;20019;-81
2023/03/07 10:28:29;;;;;;;0.32;0.32;;;;;;;4.09;87.04;99166.50;5173462;28;20049;-81
2023/03/07 10:31:24;;;;;;;0.35;0.35;;;;;;;4.10;85.65;99176.00;5145471;28;20033;-80
2023/03/07 10:33:55;;;;;;;0.40;0.40;;;;;;;3.44;86.02;99173.25;5155021;28;20046;-81
2023/03/07 10:36:38;;;;;;;0.30;0.30;;;;;;;3.73;85.73;99168.28;5147769;28;20106;-80
2023/03/07 10:39:22;;;;;;;0.30;0.30;;;;;;;3.57;85.80;99179.03;5145990;28;20027;-80
2023/03/07 10:41:53;;;;;;;0.40;0.40;;;;;;;3.69;85.75;99175.28;5132371;28;20042;-80
2023/03/07 10:44:30;;;;;;;0.30;0.30;;;;;;;3.83;85.86;99176.72;5145626;28;20125;-80
2023/03/07 10:47:01;;;;;;;0.30;0.30;;;;;;;3.58;85.62;99177.28;5126995;28;20031;-80
2023/03/07 10:49:37;;;;;;;0.30;0.30;;;;;;;3.54;85.92;99180.84;5132040;28;20551;-80
2023/03/07 10:52:59;;;;;;;0.47;0.47;;;;;;;3.62;85.72;99178.91;5148355;28;20050;-80
2023/03/07 10:55:32;;;;;;;0.30;0.30;;;;;;;3.86;84.72;99180.09;5168157;28;20050;-81
2023/03/07 10:58:13;;;;;;;0.30;0.30;;;;;;;3.62;84.41;99178.91;5143240;28;20035;-80
2023/03/07 11:00:45;;;;;;;0.52;0.52;;;;;;;3.28;86.01;99174.50;5143816;28;20058;-81
2023/03/07 11:03:37;;;;;;;0.28;0.28;;;;;;;3.29;86.09;99183.97;5128698;28;20026;-80
2023/03/07 11:06:33;;;;;;;0.40;0.40;;;;;;;3.59;85.64;99186.78;5148339;28;20026;-80
2023/03/07 11:09:26;;;;;;;0.38;0.38;;;;;;;3.37;85.96;99181.22;5129220;28;20034;-81
2023/03/07 11:12:03;;;;;;;0.30;0.30;;;;;;;3.61;85.66;99187.59;5144321;28;20096;-80
2023/03/07 11:14:54;;;;;;;0.30;0.30;;;;;;;3.73;85.16;99176.94;5148363;28;20038;-81
2023/03/07 11:17:39;;;;;;;0.40;0.40;;;;;;;3.63;84.42;99175.44;5147913;28;20042;-80
2023/03/07 11:20:22;;;;;;;0.30;0.30;;;;;;;3.63;85.60;99180.63;5168996;28;20026;-81
2023/03/07 11:23:17;;;;;;;0.40;0.40;;;;;;;3.62;84.60;99189.28;5152401;28;20069;-81
2023/03/07 11:25:49;;;;;;;0.30;0.30;;;;;;;3.57;85.09;99181.63;5146813;28;20236;-81
2023/03/07 11:28:30;;;;;;;0.30;0.30;;;;;;;3.28;84.02;99190.03;5143202;28;20031;-80
2023/03/07 11:31:16;;;;;;;0.30;0.30;;;;;;;3.04;85.23;99192.28;5132755;28;20026;-81
2023/03/07 11:34:20;;;;;;;0.30;0.30;;;;;;;3.32;85.33;99181.31;5135325;28;20092;-80
2023/03/07 11:36:59;;;;;;;2.10;0.88;;;;;;;3.73;84.59;99187.31;5166477;28;20050;-80
2023/03/07 11:39:52;;;;;;;0.30;0.30;;;;;;;3.72;83.75;99187.34;5176432;28;20069;-79
2023/03/07 11:42:30;;;;;;;0.65;0.65;;;;;;;3.85;83.37;99180.09;5168546;28;20065;-81
2023/03/07 11:45:21;;;;;;;0.75;0.75;;;;;;;3.93;83.14;99184.22;5133088;28;20168;-80
2023/03/07 11:47:55;;;;;;;0.30;0.30;;;;;;;3.89;82.15;99180.00;5145896;28;20034;-80
2023/03/07 11:50:30;;;;;;;0.40;0.40;;;;;;;3.99;82.97;99178.03;5140862;28;20678;-81
2023/03/07 11:53:06;;;;;;;0.30;0.30;;;;;;;4.08;82.41;99174.34;5126137;28;20045;-80
2023/03/07 11:55:49;;;;;;;0.40;0.40;;;;;;;4.05;81.75;99177.03;5152644;28;20093;-81
2023/03/07 11:58:53;;;;;;;0.40;0.40;;;;;;;3.97;81.85;99182.41;5164359;28;20030;-80
2023/03/07 12:01:45;;;;;;;0.32;0.32;;;;;;;3.71;80.76;99186.47;5160708;28;20093;-78
2023/03/07 12:04:51;;;;;;;0.40;0.40;;;;;;;4.08;80.96;99184.72;5147561;28;20034;-78
2023/03/07 12:07:53;;;;;;;0.30;0.30;;;;;;;3.93;81.17;99183.38;5157118;28;20058;-78
2023/03/07 12:10:52;;;;;;;0.40;0.40;;;;;;;4.03;81.31;99182.25;5140186;28;20486;-78
2023/03/07 12:13:35;;;;;;;0.30;0.30;;;;;;;4.08;80.66;99183.00;5121118;28;20042;-78